^^
Station Historical Data
Daily Summary for July 13, 2018 Units:  English    Metric   Both
« Previous Day
Next Day »
Daily Weekly Monthly Yearly Custom
  High: Low: Average:
Temperature: TemperatureF °F 67.6 °F 73.2 °F
Dew Point: DewpointF °F 67.6 °F 69.8 °F
Humidity: Humidity% 61% 89%
Wind Speed: WindSpeedMPHmph 0.0mph 0.5mph
Wind Gust: WindSpeedGustMPHmph - -
Wind- - South
Pressure: PressureIn in 30.44 in -
Precipitation: 0.13 in    
Historical Graphs
 
 
Tabular Data for July 13, 2018
Time Temperature Dew Point Pressure Wind Wind Speed Wind Gust Humidity Rainfall Rate (Hourly)
TemperatureF °F DewpointF °F PressureIn in Calm     Humidity% HourlyPrecipIn in
00:04 69.6 °F 69.3 °F 30.48 in Calm     99% 0.00 in
00:09 69.6 °F 69.3 °F 30.48 in Calm     99% 0.00 in
00:29 69.3 °F 68.9 °F 30.47 in Calm     99% 0.00 in
00:34 69.3 °F 68.9 °F 30.47 in Calm     99% 0.00 in
00:39 69.1 °F 68.7 °F 30.48 in Calm     99% 0.00 in
00:44 69.1 °F 68.7 °F 30.47 in Calm     99% 0.00 in
00:49 69.1 °F 68.7 °F 30.47 in Calm     99% 0.00 in
00:54 69.1 °F 68.7 °F 30.47 in Calm     99% 0.00 in
00:59 68.9 °F 68.5 °F 30.48 in Calm     99% 0.00 in
01:04 68.9 °F 68.5 °F 30.48 in Calm     99% 0.00 in
01:09 68.9 °F 68.5 °F 30.48 in Calm     99% 0.00 in
01:14 68.9 °F 68.5 °F 30.48 in Calm     99% 0.00 in
01:19 69.1 °F 68.7 °F 30.47 in Calm     99% 0.00 in
01:24 68.9 °F 68.5 °F 30.47 in Calm     99% 0.00 in
01:29 69.1 °F 68.7 °F 30.47 in Calm     99% 0.00 in
01:40 69.1 °F 68.7 °F 30.47 in Calm     99% 0.00 in
01:45 69.1 °F 68.7 °F 30.47 in Calm     99% 0.00 in
01:50 69.1 °F 68.7 °F 30.47 in Calm     99% 0.00 in
02:15 68.7 °F 68.4 °F 30.47 in Calm     99% 0.00 in
02:30 68.9 °F 68.5 °F 30.47 in Calm     99% 0.00 in
02:35 69.1 °F 68.7 °F 30.47 in Calm     99% 0.00 in
02:45 69.1 °F 68.7 °F 30.47 in Calm     99% 0.00 in
03:05 68.5 °F 68.2 °F 30.46 in Calm     99% 0.00 in
03:20 68.5 °F 68.2 °F 30.47 in Calm     99% 0.00 in
03:25 68.5 °F 68.2 °F 30.47 in Calm     99% 0.00 in
03:35 68.4 °F 68.0 °F 30.46 in Calm     99% 0.00 in
04:11 68.4 °F 68.0 °F 30.47 in Calm     99% 0.00 in
04:36 68.2 °F 67.8 °F 30.48 in Calm     99% 0.00 in
04:41 68.0 °F 67.6 °F 30.48 in Calm     99% 0.00 in
04:46 68.0 °F 67.6 °F 30.48 in Calm     99% 0.00 in
04:51 68.0 °F 68.0 °F 30.48 in Calm     100% 0.00 in
05:01 68.0 °F 68.0 °F 30.48 in Calm     100% 0.00 in
05:06 68.2 °F 68.2 °F 30.48 in Calm     100% 0.00 in
05:11 68.0 °F 68.0 °F 30.48 in Calm     100% 0.00 in
05:16 68.2 °F 68.2 °F 30.48 in Calm   1.0 mph 100% 0.00 in
05:21 68.2 °F 68.2 °F 30.48 in Calm     100% 0.00 in
05:26 68.2 °F 68.2 °F 30.48 in Calm   1.0 mph 100% 0.00 in
05:31 68.2 °F 68.2 °F 30.48 in Calm     100% 0.00 in
05:36 68.2 °F 68.2 °F 30.48 in Calm     100% 0.00 in
05:41 68.2 °F 68.2 °F 30.48 in Calm     100% 0.00 in
05:46 68.2 °F 68.2 °F 30.48 in Calm     100% 0.00 in
05:51 68.2 °F 68.2 °F 30.48 in Calm     100% 0.00 in
05:56 68.0 °F 68.0 °F 30.48 in Calm   1.0 mph 100% 0.00 in
06:01 67.8 °F 67.8 °F 30.49 in Calm   1.0 mph 100% 0.00 in
06:06 67.8 °F 67.8 °F 30.49 in Calm     100% 0.00 in
06:11 67.8 °F 67.8 °F 30.49 in Calm   2.0 mph 100% 0.00 in
06:16 67.6 °F 67.6 °F 30.49 in Calm   1.0 mph 100% 0.00 in
06:26 67.6 °F 67.6 °F 30.50 in Calm     100% 0.00 in
06:31 67.8 °F 67.8 °F 30.50 in Calm     100% 0.00 in
06:36 67.6 °F 67.6 °F 30.50 in Calm     100% 0.00 in
06:42 67.6 °F 67.6 °F 30.50 in Calm     100% 0.00 in
06:47 67.6 °F 67.6 °F 30.50 in Calm     100% 0.00 in
06:52 67.6 °F 67.6 °F 30.50 in Calm   1.0 mph 100% 0.00 in
06:57 67.6 °F 67.6 °F 30.51 in Calm     100% 0.00 in
07:07 67.6 °F 67.6 °F 30.51 in Calm   1.0 mph 100% 0.00 in
07:12 67.6 °F 67.6 °F 30.51 in Calm     100% 0.00 in
07:17 67.8 °F 67.8 °F 30.51 in Calm     100% 0.00 in
07:22 67.8 °F 67.8 °F 30.51 in Calm     100% 0.00 in
07:27 68.0 °F 68.0 °F 30.51 in Calm   1.0 mph 100% 0.00 in
07:32 68.0 °F 68.0 °F 30.51 in Calm     100% 0.00 in
07:42 68.4 °F 68.4 °F 30.51 in Calm     100% 0.00 in
07:47 68.4 °F 68.0 °F 30.51 in Calm     99% 0.00 in
07:52 68.4 °F 68.0 °F 30.51 in Calm     99% 0.00 in
07:57 68.5 °F 68.2 °F 30.51 in Calm     99% 0.00 in
08:02 68.7 °F 68.4 °F 30.51 in Calm     99% 0.00 in
08:07 69.1 °F 68.7 °F 30.51 in Calm     99% 0.00 in
08:12 69.3 °F 68.9 °F 30.51 in Calm     99% 0.00 in
08:17 69.3 °F 68.9 °F 30.51 in Calm     99% 0.00 in
08:22 69.3 °F 68.9 °F 30.51 in Calm     99% 0.00 in
08:27 69.4 °F 69.1 °F 30.51 in Calm   1.0 mph 99% 0.00 in
08:32 69.6 °F 69.3 °F 30.52 in Calm   1.0 mph 99% 0.00 in
08:37 69.4 °F 69.1 °F 30.52 in Calm   1.0 mph 99% 0.00 in
08:42 69.4 °F 68.9 °F 30.52 in Calm   1.0 mph 98% 0.00 in
08:47 69.6 °F 69.1 °F 30.52 in Calm   1.0 mph 98% 0.00 in
09:02 70.2 °F 69.6 °F 30.52 in Calm     98% 0.00 in
09:08 70.5 °F 69.6 °F 30.52 in Calm     97% 0.00 in
09:13 71.2 °F 70.3 °F 30.52 in Calm     97% 0.00 in
09:48 74.5 °F 72.0 °F 30.52 in Calm   1.0 mph 92% 0.00 in
09:53 74.7 °F 72.1 °F 30.51 in Calm     92% 0.00 in
09:58 74.8 °F 72.3 °F 30.51 in ESE 2.0 mph 2.0 mph 92% 0.00 in
10:03 75.0 °F 72.1 °F 30.51 in Calm   3.0 mph 91% 0.00 in
10:08 74.8 °F 72.0 °F 30.51 in Calm   2.0 mph 91% 0.00 in
10:13 75.4 °F 72.3 °F 30.51 in Calm   1.0 mph 90% 0.00 in
10:28 75.4 °F 72.0 °F 30.50 in Calm   1.0 mph 89% 0.00 in
10:33 75.9 °F 73.0 °F 30.50 in ENE 2.0 mph 2.0 mph 91% 0.00 in
10:38 76.3 °F 73.0 °F 30.50 in ESE 0.9 mph 1.0 mph 90% 0.00 in
10:43 76.6 °F 72.5 °F 30.50 in Calm   2.0 mph 87% 0.00 in
10:48 76.8 °F 73.0 °F 30.50 in Calm   2.0 mph 88% 0.00 in
10:53 77.4 °F 72.9 °F 30.50 in Calm     86% 0.00 in
11:04 77.9 °F 73.4 °F 30.50 in Calm   2.0 mph 86% 0.00 in
11:09 78.1 °F 73.2 °F 30.50 in Calm   1.0 mph 85% 0.00 in
11:14 78.6 °F 74.5 °F 30.50 in SW 0.9 mph 1.0 mph 87% 0.00 in
11:19 79.0 °F 73.8 °F 30.50 in ESE 0.9 mph 1.0 mph 84% 0.00 in
11:49 79.5 °F 72.5 °F 30.50 in West 2.0 mph 2.0 mph 79% 0.00 in
12:14 79.9 °F 71.6 °F 30.49 in ESE 2.0 mph 3.0 mph 76% 0.00 in
12:19 79.7 °F 72.1 °F 30.49 in Calm   2.0 mph 78% 0.00 in
12:24 80.2 °F 73.0 °F 30.49 in Calm   1.0 mph 79% 0.00 in
12:29 81.1 °F 73.9 °F 30.49 in East 0.9 mph 2.0 mph 79% 0.00 in
12:34 81.1 °F 72.5 °F 30.49 in Calm   2.0 mph 75% 0.00 in
12:39 81.3 °F 73.8 °F 30.48 in East 4.0 mph 4.0 mph 78% 0.00 in
12:44 81.7 °F 73.0 °F 30.48 in ESE 4.0 mph 4.0 mph 75% 0.00 in
12:49 81.7 °F 72.1 °F 30.48 in ESE 2.0 mph 3.0 mph 73% 0.00 in
12:54 81.3 °F 72.7 °F 30.48 in SE 2.0 mph 3.0 mph 75% 0.00 in
13:09 82.6 °F 70.0 °F 30.48 in West 0.9 mph 3.0 mph 66% 0.00 in
13:14 82.8 °F 71.1 °F 30.48 in WSW 0.9 mph 2.0 mph 68% 0.00 in
13:30 84.0 °F 73.2 °F 30.48 in SE 2.9 mph 3.0 mph 70% 0.00 in
13:40 83.8 °F 70.0 °F 30.47 in Calm   1.0 mph 63% 0.00 in
13:45 84.2 °F 69.3 °F 30.47 in East 0.9 mph 2.0 mph 61% 0.00 in
13:55 85.3 °F 72.7 °F 30.46 in West 2.0 mph 4.0 mph 66% 0.00 in
14:00 84.9 °F 70.5 °F 30.46 in WSW 0.9 mph 2.0 mph 62% 0.00 in
14:05 84.7 °F 72.5 °F 30.46 in Calm   2.0 mph 67% 0.00 in
14:10 85.1 °F 71.1 °F 30.45 in East 0.9 mph 5.0 mph 63% 0.00 in
14:15 85.3 °F 70.7 °F 30.45 in SE 0.9 mph 3.0 mph 62% 0.00 in
14:20 85.5 °F 72.3 °F 30.45 in NE 2.9 mph 8.0 mph 65% 0.00 in
14:30 85.5 °F 75.0 °F 30.45 in NNE 2.0 mph 7.0 mph 71% 0.00 in
14:35 85.5 °F 72.9 °F 30.45 in East 6.0 mph 7.0 mph 66% 0.00 in
14:40 84.9 °F 72.7 °F 30.45 in East 0.9 mph 5.0 mph 67% 0.00 in
14:45 84.7 °F 73.0 °F 30.45 in ESE 2.0 mph 10.0 mph 68% 0.00 in
14:50 84.4 °F 73.6 °F 30.45 in NE 4.0 mph 5.0 mph 70% 0.00 in
15:00 83.1 °F 72.0 °F 30.45 in West 2.0 mph 4.0 mph 69% 0.00 in
15:05 82.8 °F 73.6 °F 30.45 in SE 0.9 mph 2.0 mph 74% 0.00 in
15:10 82.9 °F 72.1 °F 30.45 in WNW 0.9 mph 3.0 mph 70% 0.00 in
15:20 82.2 °F 72.7 °F 30.44 in NE 2.0 mph 4.0 mph 73% 0.00 in
15:30 82.0 °F 72.9 °F 30.44 in Calm   1.0 mph 74% 0.00 in
15:35 81.9 °F 72.3 °F 30.44 in Calm   5.0 mph 73% 0.00 in
15:41 81.5 °F 71.6 °F 30.44 in West 0.9 mph 2.0 mph 72% 0.00 in
15:46 81.1 °F 71.2 °F 30.44 in NNE 0.9 mph 6.0 mph 72% 0.00 in
16:06 80.8 °F 71.2 °F 30.44 in Calm   3.0 mph 73% 0.00 in
16:11 80.8 °F 72.5 °F 30.44 in NE 4.0 mph 8.0 mph 76% 0.00 in
16:16 80.8 °F 71.2 °F 30.44 in SSW 0.9 mph 3.0 mph 73% 0.00 in
16:26 80.1 °F 71.8 °F 30.44 in Calm   3.0 mph 76% 0.00 in
16:36 79.2 °F 71.8 °F 30.44 in West 0.9 mph 1.0 mph 78% 0.00 in
16:41 78.6 °F 71.2 °F 30.45 in Calm   1.0 mph 78% 0.00 in
16:46 78.8 °F 72.1 °F 30.45 in WNW 2.0 mph 2.0 mph 80% 0.00 in
17:01 77.4 °F 71.4 °F 30.46 in West 2.9 mph 6.0 mph 82% 0.00 in
17:06 76.6 °F 71.8 °F 30.45 in ESE 0.9 mph 1.0 mph 85% 0.00 in
17:11 76.3 °F 71.4 °F 30.45 in Calm   3.0 mph 85% 0.00 in
17:16 76.1 °F 71.6 °F 30.45 in ENE 2.0 mph 4.0 mph 86% 0.00 in
17:26 76.1 °F 71.2 °F 30.46 in NE 2.0 mph 2.0 mph 85% 0.00 in
17:31 76.1 °F 71.6 °F 30.46 in Calm   3.0 mph 86% 0.00 in
17:41 75.7 °F 72.0 °F 30.46 in Calm     88% 0.00 in
17:46 75.7 °F 72.0 °F 30.46 in WNW 2.0 mph 2.0 mph 88% 0.00 in
17:51 75.6 °F 72.1 °F 30.47 in WNW 0.9 mph 2.0 mph 89% 0.00 in
17:56 75.6 °F 72.1 °F 30.47 in Calm   1.0 mph 89% 0.00 in
18:01 75.4 °F 72.0 °F 30.47 in West 0.9 mph 2.0 mph 89% 0.00 in
18:07 75.2 °F 72.1 °F 30.47 in Calm     90% 0.00 in
18:17 74.8 °F 71.8 °F 30.47 in Calm   1.0 mph 90% 0.00 in
18:22 74.8 °F 72.0 °F 30.47 in WSW 0.9 mph 1.0 mph 91% 0.00 in
18:37 74.8 °F 72.0 °F 30.47 in Calm     91% 0.00 in
18:42 74.8 °F 72.0 °F 30.47 in Calm   1.0 mph 91% 0.00 in
18:47 74.7 °F 71.8 °F 30.47 in Calm   1.0 mph 91% 0.00 in
18:52 74.7 °F 72.1 °F 30.46 in Calm     92% 0.00 in
19:02 74.5 °F 72.3 °F 30.46 in Calm     93% 0.00 in
19:22 74.5 °F 72.3 °F 30.47 in Calm     93% 0.00 in
19:32 74.5 °F 72.3 °F 30.47 in Calm     93% 0.00 in
19:42 74.5 °F 72.3 °F 30.47 in Calm   1.0 mph 93% 0.00 in
20:12 73.9 °F 70.9 °F 30.47 in West 0.9 mph 1.0 mph 90% 0.00 in
20:22 73.2 °F 70.2 °F 30.47 in Calm   1.0 mph 90% 0.00 in
20:28 73.2 °F 70.5 °F 30.48 in West 0.9 mph 1.0 mph 91% 0.00 in
20:33 72.9 °F 70.3 °F 30.48 in Calm   1.0 mph 92% 0.00 in
20:38 72.7 °F 70.2 °F 30.48 in Calm   1.0 mph 92% 0.00 in
20:43 72.3 °F 70.2 °F 30.48 in Calm     93% 0.00 in
20:53 72.1 °F 70.3 °F 30.48 in Calm   1.0 mph 94% 0.00 in
20:58 72.1 °F 70.0 °F 30.48 in Calm   2.0 mph 93% 0.00 in
21:03 72.7 °F 70.2 °F 30.48 in NNW 0.9 mph 1.0 mph 92% 0.00 in
21:28 73.6 °F 70.2 °F 30.49 in Calm   2.0 mph 89% 0.00 in
21:33 73.8 °F 70.3 °F 30.50 in Calm   2.0 mph 89% 0.00 in
21:38 73.6 °F 70.2 °F 30.50 in WNW 0.9 mph 2.0 mph 89% 0.00 in
21:43 73.6 °F 70.2 °F 30.50 in Calm   1.0 mph 89% 0.00 in
21:48 73.4 °F 70.0 °F 30.50 in Calm   1.0 mph 89% 0.00 in
21:58 73.2 °F 69.4 °F 30.50 in WNW 2.0 mph 5.0 mph 88% 0.00 in
22:08 73.2 °F 69.1 °F 30.51 in Calm   4.0 mph 87% 0.00 in
22:13 73.2 °F 69.1 °F 30.51 in Calm   2.0 mph 87% 0.00 in
22:23 73.0 °F 68.9 °F 30.52 in Calm   7.0 mph 87% 0.00 in
22:28 72.9 °F 68.7 °F 30.52 in Calm   3.0 mph 87% 0.00 in
22:33 72.7 °F 68.5 °F 30.52 in West 0.9 mph 2.0 mph 87% 0.00 in
22:39 72.3 °F 68.5 °F 30.52 in West 0.9 mph 1.0 mph 88% 0.00 in
22:44 72.1 °F 68.7 °F 30.53 in Calm     89% 0.00 in
22:49 71.8 °F 68.7 °F 30.53 in Calm   1.0 mph 90% 0.00 in
23:09 70.0 °F 68.5 °F 30.53 in Calm   2.0 mph 95% 0.03 in
23:14 69.8 °F 68.4 °F 30.53 in WNW 0.9 mph 1.0 mph 95% 0.06 in
23:19 69.4 °F 68.2 °F 30.54 in WNW 0.9 mph 2.0 mph 96% 0.08 in
23:29 69.1 °F 67.8 °F 30.54 in Calm   1.0 mph 96% 0.10 in
23:34 69.1 °F 68.2 °F 30.53 in SE 0.9 mph 2.0 mph 97% 0.12 in
23:39 69.1 °F 68.2 °F 30.53 in Calm     97% 0.12 in
23:44 69.1 °F 68.2 °F 30.53 in Calm     97% 0.13 in
23:49 69.1 °F 68.2 °F 30.53 in Calm     97% 0.13 in
23:54 68.9 °F 68.0 °F 30.53 in Calm     97% 0.13 in
WheeWeather.com
Compliments of Weather Underground - 2 mb